sensor_id;sensor_type;location;lat;lon;timestamp;P1;durP1;ratioP1;P2;durP2;ratioP2
68108;SDS011;54893;49.864;19.084;2022-11-20T00:00:16;131.97;;;49.87;;
68108;SDS011;54893;49.864;19.084;2022-11-20T00:05:17;146.70;;;50.87;;
68108;SDS011;54893;49.864;19.084;2022-11-20T00:10:18;133.47;;;49.43;;
68108;SDS011;54893;49.864;19.084;2022-11-20T00:15:18;129.47;;;46.97;;
68108;SDS011;54893;49.864;19.084;2022-11-20T00:20:18;180.60;;;61.40;;
68108;SDS011;54893;49.864;19.084;2022-11-20T00:25:19;176.67;;;58.73;;
68108;SDS011;54893;49.864;19.084;2022-11-20T00:30:19;167.17;;;58.53;;
68108;SDS011;54893;49.864;19.084;2022-11-20T00:35:19;145.90;;;50.17;;
68108;SDS011;54893;49.864;19.084;2022-11-20T00:40:20;142.10;;;52.58;;
68108;SDS011;54893;49.864;19.084;2022-11-20T00:45:20;121.13;;;41.80;;
68108;SDS011;54893;49.864;19.084;2022-11-20T00:50:20;121.93;;;41.53;;
68108;SDS011;54893;49.864;19.084;2022-11-20T00:55:21;105.63;;;39.17;;
68108;SDS011;54893;49.864;19.084;2022-11-20T01:00:21;115.47;;;42.17;;
68108;SDS011;54893;49.864;19.084;2022-11-20T01:05:22;111.33;;;40.23;;
68108;SDS011;54893;49.864;19.084;2022-11-20T01:10:22;111.20;;;40.90;;
68108;SDS011;54893;49.864;19.084;2022-11-20T01:15:22;108.13;;;38.23;;
68108;SDS011;54893;49.864;19.084;2022-11-20T01:20:23;113.82;;;39.55;;
68108;SDS011;54893;49.864;19.084;2022-11-20T01:25:23;107.05;;;37.85;;
68108;SDS011;54893;49.864;19.084;2022-11-20T01:30:23;105.07;;;38.07;;
68108;SDS011;54893;49.864;19.084;2022-11-20T01:35:23;106.67;;;39.00;;
68108;SDS011;54893;49.864;19.084;2022-11-20T01:40:24;97.43;;;33.30;;
68108;SDS011;54893;49.864;19.084;2022-11-20T01:50:46;82.83;;;28.10;;
68108;SDS011;54893;49.864;19.084;2022-11-20T01:55:48;83.55;;;28.92;;
68108;SDS011;54893;49.864;19.084;2022-11-20T02:00:50;82.90;;;28.63;;
68108;SDS011;54893;49.864;19.084;2022-11-20T02:06:00;77.20;;;28.13;;
68108;SDS011;54893;49.864;19.084;2022-11-20T02:11:05;83.25;;;29.58;;
68108;SDS011;54893;49.864;19.084;2022-11-20T02:16:08;92.83;;;34.43;;
68108;SDS011;54893;49.864;19.084;2022-11-20T02:21:15;95.65;;;35.03;;
68108;SDS011;54893;49.864;19.084;2022-11-20T02:26:18;90.97;;;32.58;;
68108;SDS011;54893;49.864;19.084;2022-11-20T02:31:20;80.72;;;28.75;;
68108;SDS011;54893;49.864;19.084;2022-11-20T02:36:21;70.47;;;25.75;;
68108;SDS011;54893;49.864;19.084;2022-11-20T02:41:21;61.67;;;21.17;;
68108;SDS011;54893;49.864;19.084;2022-11-20T02:46:33;61.58;;;20.02;;
68108;SDS011;54893;49.864;19.084;2022-11-20T02:51:34;57.22;;;19.70;;
68108;SDS011;54893;49.864;19.084;2022-11-20T02:56:34;58.70;;;21.13;;
68108;SDS011;54893;49.864;19.084;2022-11-20T03:01:38;64.40;;;21.90;;
68108;SDS011;54893;49.864;19.084;2022-11-20T03:06:38;68.17;;;23.87;;
68108;SDS011;54893;49.864;19.084;2022-11-20T03:11:39;76.53;;;26.58;;
68108;SDS011;54893;49.864;19.084;2022-11-20T03:16:39;72.57;;;25.93;;
68108;SDS011;54893;49.864;19.084;2022-11-20T03:21:40;77.00;;;27.33;;
68108;SDS011;54893;49.864;19.084;2022-11-20T03:26:40;80.70;;;27.77;;
68108;SDS011;54893;49.864;19.084;2022-11-20T03:31:41;88.22;;;29.05;;
68108;SDS011;54893;49.864;19.084;2022-11-20T03:36:42;89.03;;;29.23;;
68108;SDS011;54893;49.864;19.084;2022-11-20T03:41:42;71.70;;;25.13;;
68108;SDS011;54893;49.864;19.084;2022-11-20T03:46:43;76.25;;;24.48;;
68108;SDS011;54893;49.864;19.084;2022-11-20T03:51:43;58.13;;;17.80;;
68108;SDS011;54893;49.864;19.084;2022-11-20T03:56:44;68.47;;;21.50;;
68108;SDS011;54893;49.864;19.084;2022-11-20T04:01:44;78.90;;;26.40;;
68108;SDS011;54893;49.864;19.084;2022-11-20T04:06:44;86.83;;;27.83;;
68108;SDS011;54893;49.864;19.084;2022-11-20T04:11:44;82.93;;;27.80;;
68108;SDS011;54893;49.864;19.084;2022-11-20T04:16:45;73.70;;;24.35;;
68108;SDS011;54893;49.864;19.084;2022-11-20T04:21:45;72.03;;;23.10;;
68108;SDS011;54893;49.864;19.084;2022-11-20T04:26:46;62.73;;;21.33;;
68108;SDS011;54893;49.864;19.084;2022-11-20T04:31:46;81.83;;;24.33;;
68108;SDS011;54893;49.864;19.084;2022-11-20T04:36:46;84.50;;;25.40;;
68108;SDS011;54893;49.864;19.084;2022-11-20T04:41:47;87.73;;;28.60;;
68108;SDS011;54893;49.864;19.084;2022-11-20T04:46:47;103.18;;;34.15;;
68108;SDS011;54893;49.864;19.084;2022-11-20T04:51:47;98.70;;;30.30;;
68108;SDS011;54893;49.864;19.084;2022-11-20T04:56:48;99.72;;;34.05;;
68108;SDS011;54893;49.864;19.084;2022-11-20T05:01:48;83.07;;;28.80;;
68108;SDS011;54893;49.864;19.084;2022-11-20T05:06:49;72.05;;;23.63;;
68108;SDS011;54893;49.864;19.084;2022-11-20T05:11:50;72.03;;;23.83;;
68108;SDS011;54893;49.864;19.084;2022-11-20T05:16:50;85.07;;;29.63;;
68108;SDS011;54893;49.864;19.084;2022-11-20T05:21:50;90.73;;;32.37;;
68108;SDS011;54893;49.864;19.084;2022-11-20T05:26:51;88.67;;;29.97;;
68108;SDS011;54893;49.864;19.084;2022-11-20T05:31:51;88.17;;;29.87;;
68108;SDS011;54893;49.864;19.084;2022-11-20T05:36:51;85.60;;;25.83;;
68108;SDS011;54893;49.864;19.084;2022-11-20T05:41:52;87.95;;;29.02;;
68108;SDS011;54893;49.864;19.084;2022-11-20T05:47:12;84.47;;;25.77;;
68108;SDS011;54893;49.864;19.084;2022-11-20T05:52:12;90.47;;;31.83;;
68108;SDS011;54893;49.864;19.084;2022-11-20T05:57:13;89.20;;;26.83;;
68108;SDS011;54893;49.864;19.084;2022-11-20T06:02:13;83.23;;;27.90;;
68108;SDS011;54893;49.864;19.084;2022-11-20T06:07:13;88.07;;;28.90;;
68108;SDS011;54893;49.864;19.084;2022-11-20T06:12:14;84.80;;;27.57;;
68108;SDS011;54893;49.864;19.084;2022-11-20T06:17:14;85.30;;;27.60;;
68108;SDS011;54893;49.864;19.084;2022-11-20T06:22:15;86.68;;;28.00;;
68108;SDS011;54893;49.864;19.084;2022-11-20T06:27:15;83.90;;;27.90;;
68108;SDS011;54893;49.864;19.084;2022-11-20T06:32:16;86.83;;;30.33;;
68108;SDS011;54893;49.864;19.084;2022-11-20T06:37:16;106.85;;;36.83;;
68108;SDS011;54893;49.864;19.084;2022-11-20T06:42:16;106.03;;;37.50;;
68108;SDS011;54893;49.864;19.084;2022-11-20T06:47:17;111.47;;;36.40;;
68108;SDS011;54893;49.864;19.084;2022-11-20T06:52:17;105.97;;;36.47;;
68108;SDS011;54893;49.864;19.084;2022-11-20T06:57:17;80.13;;;26.77;;
68108;SDS011;54893;49.864;19.084;2022-11-20T07:02:18;81.37;;;26.20;;
68108;SDS011;54893;49.864;19.084;2022-11-20T07:07:18;101.93;;;36.00;;
68108;SDS011;54893;49.864;19.084;2022-11-20T07:12:18;109.47;;;41.28;;
68108;SDS011;54893;49.864;19.084;2022-11-20T07:17:18;87.97;;;27.83;;
68108;SDS011;54893;49.864;19.084;2022-11-20T07:22:19;84.33;;;30.20;;
68108;SDS011;54893;49.864;19.084;2022-11-20T07:27:21;101.45;;;38.08;;
68108;SDS011;54893;49.864;19.084;2022-11-20T07:32:22;111.43;;;41.47;;
68108;SDS011;54893;49.864;19.084;2022-11-20T07:37:22;80.50;;;29.87;;
68108;SDS011;54893;49.864;19.084;2022-11-20T07:42:23;79.53;;;30.27;;
68108;SDS011;54893;49.864;19.084;2022-11-20T07:47:23;76.97;;;27.30;;
68108;SDS011;54893;49.864;19.084;2022-11-20T07:52:23;103.38;;;38.50;;
68108;SDS011;54893;49.864;19.084;2022-11-20T07:57:24;110.03;;;37.65;;
68108;SDS011;54893;49.864;19.084;2022-11-20T08:02:24;110.85;;;42.20;;
68108;SDS011;54893;49.864;19.084;2022-11-20T08:07:24;96.30;;;33.67;;
68108;SDS011;54893;49.864;19.084;2022-11-20T08:12:25;100.80;;;34.47;;
68108;SDS011;54893;49.864;19.084;2022-11-20T08:17:44;96.50;;;34.00;;
68108;SDS011;54893;49.864;19.084;2022-11-20T08:22:44;129.97;;;45.20;;
68108;SDS011;54893;49.864;19.084;2022-11-20T08:27:44;113.53;;;37.08;;
68108;SDS011;54893;49.864;19.084;2022-11-20T08:32:45;84.57;;;27.90;;
68108;SDS011;54893;49.864;19.084;2022-11-20T08:37:46;134.50;;;39.30;;
68108;SDS011;54893;49.864;19.084;2022-11-20T08:42:47;137.32;;;44.08;;
68108;SDS011;54893;49.864;19.084;2022-11-20T08:47:49;119.27;;;38.03;;
68108;SDS011;54893;49.864;19.084;2022-11-20T08:52:49;103.10;;;35.90;;
68108;SDS011;54893;49.864;19.084;2022-11-20T08:57:49;169.83;;;51.47;;
68108;SDS011;54893;49.864;19.084;2022-11-20T09:02:50;77.95;;;26.25;;
68108;SDS011;54893;49.864;19.084;2022-11-20T09:07:50;60.43;;;21.60;;
68108;SDS011;54893;49.864;19.084;2022-11-20T09:12:51;65.07;;;24.07;;
68108;SDS011;54893;49.864;19.084;2022-11-20T09:17:55;82.70;;;28.73;;
68108;SDS011;54893;49.864;19.084;2022-11-20T09:22:59;98.87;;;32.30;;
68108;SDS011;54893;49.864;19.084;2022-11-20T09:28:00;99.00;;;36.00;;
68108;SDS011;54893;49.864;19.084;2022-11-20T09:33:00;90.17;;;32.03;;
68108;SDS011;54893;49.864;19.084;2022-11-20T09:38:04;98.50;;;38.20;;
68108;SDS011;54893;49.864;19.084;2022-11-20T09:43:18;86.18;;;30.33;;
68108;SDS011;54893;49.864;19.084;2022-11-20T09:54:17;77.50;;;27.42;;
68108;SDS011;54893;49.864;19.084;2022-11-20T09:59:31;73.30;;;27.57;;
68108;SDS011;54893;49.864;19.084;2022-11-20T10:04:35;69.20;;;25.13;;
68108;SDS011;54893;49.864;19.084;2022-11-20T10:09:55;71.68;;;24.83;;
68108;SDS011;54893;49.864;19.084;2022-11-20T10:20:38;79.30;;;27.27;;
68108;SDS011;54893;49.864;19.084;2022-11-20T10:25:48;62.10;;;21.30;;
68108;SDS011;54893;49.864;19.084;2022-11-20T10:31:30;83.90;;;27.52;;
68108;SDS011;54893;49.864;19.084;2022-11-20T10:36:44;63.78;;;22.17;;
68108;SDS011;54893;49.864;19.084;2022-11-20T10:41:50;79.75;;;26.25;;
68108;SDS011;54893;49.864;19.084;2022-11-20T10:46:53;71.78;;;23.63;;
68108;SDS011;54893;49.864;19.084;2022-11-20T10:52:00;56.03;;;18.77;;
68108;SDS011;54893;49.864;19.084;2022-11-20T11:07:44;68.70;;;24.50;;
68108;SDS011;54893;49.864;19.084;2022-11-20T11:12:46;62.55;;;22.17;;
68108;SDS011;54893;49.864;19.084;2022-11-20T11:17:50;69.55;;;24.17;;
68108;SDS011;54893;49.864;19.084;2022-11-20T11:27:52;86.05;;;29.45;;
68108;SDS011;54893;49.864;19.084;2022-11-20T11:33:05;61.27;;;23.23;;
68108;SDS011;54893;49.864;19.084;2022-11-20T11:38:14;52.45;;;21.20;;
68108;SDS011;54893;49.864;19.084;2022-11-20T11:43:21;64.37;;;24.00;;
68108;SDS011;54893;49.864;19.084;2022-11-20T11:48:42;65.40;;;24.13;;
68108;SDS011;54893;49.864;19.084;2022-11-20T11:53:56;62.33;;;22.25;;
68108;SDS011;54893;49.864;19.084;2022-11-20T11:59:00;60.57;;;21.93;;
68108;SDS011;54893;49.864;19.084;2022-11-20T12:09:18;68.67;;;24.40;;
68108;SDS011;54893;49.864;19.084;2022-11-20T12:14:28;67.55;;;23.65;;
68108;SDS011;54893;49.864;19.084;2022-11-20T12:19:34;62.90;;;21.60;;
68108;SDS011;54893;49.864;19.084;2022-11-20T12:46:08;70.43;;;25.33;;
68108;SDS011;54893;49.864;19.084;2022-11-20T13:01:51;70.87;;;26.90;;
68108;SDS011;54893;49.864;19.084;2022-11-20T13:06:56;80.38;;;30.05;;
68108;SDS011;54893;49.864;19.084;2022-11-20T13:12:16;86.70;;;29.13;;
68108;SDS011;54893;49.864;19.084;2022-11-20T13:22:29;76.70;;;28.40;;
68108;SDS011;54893;49.864;19.084;2022-11-20T13:27:47;84.53;;;31.67;;
68108;SDS011;54893;49.864;19.084;2022-11-20T13:32:49;93.27;;;34.23;;
68108;SDS011;54893;49.864;19.084;2022-11-20T13:48:43;114.67;;;40.87;;
68108;SDS011;54893;49.864;19.084;2022-11-20T13:53:59;109.80;;;39.85;;
68108;SDS011;54893;49.864;19.084;2022-11-20T14:04:27;112.03;;;39.88;;
68108;SDS011;54893;49.864;19.084;2022-11-20T14:09:31;138.38;;;48.95;;
68108;SDS011;54893;49.864;19.084;2022-11-20T14:14:33;120.87;;;44.23;;
68108;SDS011;54893;49.864;19.084;2022-11-20T14:19:33;116.32;;;44.88;;
68108;SDS011;54893;49.864;19.084;2022-11-20T14:24:35;113.10;;;42.70;;
68108;SDS011;54893;49.864;19.084;2022-11-20T14:29:36;129.90;;;48.23;;
68108;SDS011;54893;49.864;19.084;2022-11-20T14:34:39;124.30;;;46.25;;
68108;SDS011;54893;49.864;19.084;2022-11-20T14:39:42;142.53;;;53.27;;
68108;SDS011;54893;49.864;19.084;2022-11-20T14:44:48;150.63;;;55.53;;
68108;SDS011;54893;49.864;19.084;2022-11-20T14:49:50;167.55;;;59.10;;
68108;SDS011;54893;49.864;19.084;2022-11-20T14:54:55;141.97;;;52.80;;
68108;SDS011;54893;49.864;19.084;2022-11-20T15:05:11;149.33;;;55.40;;
68108;SDS011;54893;49.864;19.084;2022-11-20T15:10:13;182.77;;;70.75;;
68108;SDS011;54893;49.864;19.084;2022-11-20T15:15:30;184.63;;;65.57;;
68108;SDS011;54893;49.864;19.084;2022-11-20T15:20:32;200.83;;;72.13;;
68108;SDS011;54893;49.864;19.084;2022-11-20T15:25:35;224.32;;;81.20;;
68108;SDS011;54893;49.864;19.084;2022-11-20T15:30:38;227.50;;;81.73;;
68108;SDS011;54893;49.864;19.084;2022-11-20T15:35:38;213.10;;;74.93;;
68108;SDS011;54893;49.864;19.084;2022-11-20T15:40:39;207.33;;;78.00;;
68108;SDS011;54893;49.864;19.084;2022-11-20T15:56:17;200.05;;;74.60;;
68108;SDS011;54893;49.864;19.084;2022-11-20T16:01:18;156.30;;;59.20;;
68108;SDS011;54893;49.864;19.084;2022-11-20T16:06:21;138.35;;;53.10;;
68108;SDS011;54893;49.864;19.084;2022-11-20T16:11:21;122.87;;;47.33;;
68108;SDS011;54893;49.864;19.084;2022-11-20T16:16:22;97.80;;;34.00;;
68108;SDS011;54893;49.864;19.084;2022-11-20T16:21:43;89.00;;;32.93;;
68108;SDS011;54893;49.864;19.084;2022-11-20T16:26:43;90.30;;;33.13;;
68108;SDS011;54893;49.864;19.084;2022-11-20T16:31:44;128.20;;;45.07;;
68108;SDS011;54893;49.864;19.084;2022-11-20T16:36:44;138.70;;;50.97;;
68108;SDS011;54893;49.864;19.084;2022-11-20T16:41:44;129.03;;;48.33;;
68108;SDS011;54893;49.864;19.084;2022-11-20T16:46:45;157.63;;;52.03;;
68108;SDS011;54893;49.864;19.084;2022-11-20T16:51:45;103.60;;;39.27;;
68108;SDS011;54893;49.864;19.084;2022-11-20T16:56:46;111.13;;;43.83;;
68108;SDS011;54893;49.864;19.084;2022-11-20T17:01:50;93.33;;;35.90;;
68108;SDS011;54893;49.864;19.084;2022-11-20T17:06:51;84.93;;;31.25;;
68108;SDS011;54893;49.864;19.084;2022-11-20T17:11:51;104.73;;;41.17;;
68108;SDS011;54893;49.864;19.084;2022-11-20T17:16:51;119.77;;;46.60;;
68108;SDS011;54893;49.864;19.084;2022-11-20T17:21:52;132.57;;;52.37;;
68108;SDS011;54893;49.864;19.084;2022-11-20T17:26:52;140.30;;;56.00;;
68108;SDS011;54893;49.864;19.084;2022-11-20T17:31:53;154.40;;;59.00;;
68108;SDS011;54893;49.864;19.084;2022-11-20T17:36:53;124.97;;;46.47;;
68108;SDS011;54893;49.864;19.084;2022-11-20T17:41:54;127.75;;;49.33;;
68108;SDS011;54893;49.864;19.084;2022-11-20T17:47:13;126.83;;;46.90;;
68108;SDS011;54893;49.864;19.084;2022-11-20T17:52:13;115.80;;;43.37;;
68108;SDS011;54893;49.864;19.084;2022-11-20T17:57:13;140.07;;;47.17;;
68108;SDS011;54893;49.864;19.084;2022-11-20T18:02:32;149.98;;;55.85;;
68108;SDS011;54893;49.864;19.084;2022-11-20T18:07:33;164.83;;;62.10;;
68108;SDS011;54893;49.864;19.084;2022-11-20T18:12:34;163.93;;;61.75;;
68108;SDS011;54893;49.864;19.084;2022-11-20T18:17:34;155.60;;;57.70;;
68108;SDS011;54893;49.864;19.084;2022-11-20T18:22:35;153.43;;;58.47;;
68108;SDS011;54893;49.864;19.084;2022-11-20T18:27:35;167.15;;;65.43;;
68108;SDS011;54893;49.864;19.084;2022-11-20T18:32:37;145.13;;;52.43;;
68108;SDS011;54893;49.864;19.084;2022-11-20T18:37:37;156.00;;;58.03;;
68108;SDS011;54893;49.864;19.084;2022-11-20T18:42:38;147.05;;;53.17;;
68108;SDS011;54893;49.864;19.084;2022-11-20T18:47:56;148.70;;;53.90;;
68108;SDS011;54893;49.864;19.084;2022-11-20T18:52:57;137.13;;;51.20;;
68108;SDS011;54893;49.864;19.084;2022-11-20T18:57:57;118.10;;;43.00;;
68108;SDS011;54893;49.864;19.084;2022-11-20T19:02:57;104.43;;;36.92;;
68108;SDS011;54893;49.864;19.084;2022-11-20T19:07:58;105.65;;;39.53;;
68108;SDS011;54893;49.864;19.084;2022-11-20T19:12:58;110.73;;;45.70;;
68108;SDS011;54893;49.864;19.084;2022-11-20T19:17:58;98.93;;;37.77;;
68108;SDS011;54893;49.864;19.084;2022-11-20T19:23:00;98.55;;;40.33;;
68108;SDS011;54893;49.864;19.084;2022-11-20T19:28:00;89.60;;;33.10;;
68108;SDS011;54893;49.864;19.084;2022-11-20T19:33:01;84.57;;;29.00;;
68108;SDS011;54893;49.864;19.084;2022-11-20T19:38:01;73.30;;;25.30;;
68108;SDS011;54893;49.864;19.084;2022-11-20T19:43:01;75.40;;;26.77;;
68108;SDS011;54893;49.864;19.084;2022-11-20T19:48:04;81.60;;;28.50;;
68108;SDS011;54893;49.864;19.084;2022-11-20T19:53:04;83.27;;;29.07;;
68108;SDS011;54893;49.864;19.084;2022-11-20T19:58:06;93.40;;;34.20;;
68108;SDS011;54893;49.864;19.084;2022-11-20T20:03:06;100.60;;;40.03;;
68108;SDS011;54893;49.864;19.084;2022-11-20T20:08:07;101.90;;;37.57;;
68108;SDS011;54893;49.864;19.084;2022-11-20T20:13:07;107.43;;;41.77;;
68108;SDS011;54893;49.864;19.084;2022-11-20T20:18:08;107.80;;;39.65;;
68108;SDS011;54893;49.864;19.084;2022-11-20T20:23:09;118.80;;;43.50;;
68108;SDS011;54893;49.864;19.084;2022-11-20T20:28:10;113.47;;;41.27;;
68108;SDS011;54893;49.864;19.084;2022-11-20T20:33:10;105.80;;;38.60;;
68108;SDS011;54893;49.864;19.084;2022-11-20T20:38:10;136.90;;;52.37;;
68108;SDS011;54893;49.864;19.084;2022-11-20T20:43:11;159.20;;;60.37;;
68108;SDS011;54893;49.864;19.084;2022-11-20T20:48:11;146.07;;;54.00;;
68108;SDS011;54893;49.864;19.084;2022-11-20T20:53:12;128.67;;;47.63;;
68108;SDS011;54893;49.864;19.084;2022-11-20T20:58:12;129.03;;;47.77;;
68108;SDS011;54893;49.864;19.084;2022-11-20T21:03:12;126.53;;;47.67;;
68108;SDS011;54893;49.864;19.084;2022-11-20T21:08:13;135.67;;;52.77;;
68108;SDS011;54893;49.864;19.084;2022-11-20T21:13:23;132.57;;;48.83;;
68108;SDS011;54893;49.864;19.084;2022-11-20T21:18:23;138.10;;;51.83;;
68108;SDS011;54893;49.864;19.084;2022-11-20T21:23:24;134.52;;;48.90;;
68108;SDS011;54893;49.864;19.084;2022-11-20T21:28:25;121.77;;;45.27;;
68108;SDS011;54893;49.864;19.084;2022-11-20T21:33:25;116.37;;;43.33;;
68108;SDS011;54893;49.864;19.084;2022-11-20T21:38:25;126.03;;;45.58;;
68108;SDS011;54893;49.864;19.084;2022-11-20T21:43:25;150.33;;;54.80;;
68108;SDS011;54893;49.864;19.084;2022-11-20T21:48:27;99.55;;;35.75;;
68108;SDS011;54893;49.864;19.084;2022-11-20T21:53:29;139.17;;;54.70;;
68108;SDS011;54893;49.864;19.084;2022-11-20T21:58:29;151.10;;;67.03;;
68108;SDS011;54893;49.864;19.084;2022-11-20T22:03:30;127.63;;;49.95;;
68108;SDS011;54893;49.864;19.084;2022-11-20T22:08:30;127.57;;;47.80;;
68108;SDS011;54893;49.864;19.084;2022-11-20T22:13:32;120.80;;;43.47;;
68108;SDS011;54893;49.864;19.084;2022-11-20T22:18:52;120.53;;;40.83;;
68108;SDS011;54893;49.864;19.084;2022-11-20T22:23:54;101.40;;;34.42;;
68108;SDS011;54893;49.864;19.084;2022-11-20T22:28:55;120.57;;;39.00;;
68108;SDS011;54893;49.864;19.084;2022-11-20T22:33:57;116.03;;;39.07;;
68108;SDS011;54893;49.864;19.084;2022-11-20T22:38:58;107.80;;;37.85;;
68108;SDS011;54893;49.864;19.084;2022-11-20T22:44:02;119.38;;;42.15;;
68108;SDS011;54893;49.864;19.084;2022-11-20T22:49:05;113.97;;;42.20;;
68108;SDS011;54893;49.864;19.084;2022-11-20T22:54:09;149.25;;;58.38;;
68108;SDS011;54893;49.864;19.084;2022-11-20T22:59:11;123.10;;;47.30;;
68108;SDS011;54893;49.864;19.084;2022-11-20T23:04:12;116.87;;;45.83;;
68108;SDS011;54893;49.864;19.084;2022-11-20T23:09:12;115.33;;;44.43;;
68108;SDS011;54893;49.864;19.084;2022-11-20T23:14:13;107.43;;;41.17;;
68108;SDS011;54893;49.864;19.084;2022-11-20T23:19:14;105.75;;;40.03;;
68108;SDS011;54893;49.864;19.084;2022-11-20T23:24:15;83.17;;;29.27;;
68108;SDS011;54893;49.864;19.084;2022-11-20T23:29:15;82.00;;;30.87;;
68108;SDS011;54893;49.864;19.084;2022-11-20T23:34:16;80.23;;;27.53;;
68108;SDS011;54893;49.864;19.084;2022-11-20T23:39:16;64.57;;;22.83;;
68108;SDS011;54893;49.864;19.084;2022-11-20T23:44:16;50.33;;;18.27;;
68108;SDS011;54893;49.864;19.084;2022-11-20T23:49:17;44.40;;;16.75;;
68108;SDS011;54893;49.864;19.084;2022-11-20T23:54:17;40.40;;;16.02;;
68108;SDS011;54893;49.864;19.084;2022-11-20T23:59:17;39.88;;;14.68;;
